Time;durP1;ratioP1;P1;durP2;ratioP2;P2;SDS_P1;SDS_P2;PMS_P1;PMS_P2;Temp;Humidity;BMP_temperature;BMP_pressure;BME280_temperature;BME280_humidity;BME280_pressure;Samples;Min_cycle;Max_cycle;Signal;HPM_P1;HPM_P2
2022/02/12 00:00:48;;;;;;;26.48;14.70;;;-2.10;99.90;;;;;;4975758;28;20033;-75
2022/02/12 00:03:14;;;;;;;17.90;14.50;;;-2.10;99.90;;;;;;4975999;28;20030;-75
2022/02/12 00:05:40;;;;;;;16.83;13.05;;;-2.10;99.90;;;;;;4975705;28;20035;-76
2022/02/12 00:08:07;;;;;;;17.38;12.75;;;-2.10;99.90;;;;;;4976018;28;20038;-76
2022/02/12 00:10:33;;;;;;;15.93;11.82;;;-2.30;99.90;;;;;;4976252;28;20031;-75
2022/02/12 00:12:59;;;;;;;19.27;13.05;;;-2.30;99.90;;;;;;4976890;28;20042;-76
2022/02/12 00:15:26;;;;;;;15.40;12.55;;;-2.30;99.90;;;;;;4977427;28;20031;-75
2022/02/12 00:17:54;;;;;;;19.92;12.38;;;-2.30;99.90;;;;;;4956776;29;20048;-76
2022/02/12 00:20:20;;;;;;;11.48;9.02;;;-2.40;99.90;;;;;;4988380;28;20035;-76
2022/02/12 00:22:46;;;;;;;18.77;10.80;;;-2.50;99.90;;;;;;4955951;29;20477;-75
2022/02/12 00:25:12;;;;;;;14.27;10.75;;;-2.50;99.90;;;;;;4956339;28;20129;-75
2022/02/12 00:27:38;;;;;;;30.25;11.55;;;-2.50;99.90;;;;;;4955704;29;20042;-75
2022/02/12 00:30:06;;;;;;;20.80;11.38;;;-2.60;99.90;;;;;;4955906;28;20027;-75
2022/02/12 00:32:32;;;;;;;17.35;11.15;;;-2.50;99.90;;;;;;4956413;29;20472;-75
2022/02/12 00:34:58;;;;;;;15.55;10.20;;;-2.60;99.90;;;;;;4956526;29;20031;-75
2022/02/12 00:37:28;;;;;;;25.23;11.65;;;-2.60;99.90;;;;;;4960055;29;20046;-75
2022/02/12 00:39:55;;;;;;;22.10;10.02;;;-2.70;99.90;;;;;;4957800;29;20046;-75
2022/02/12 00:42:22;;;;;;;11.32;8.38;;;-2.80;99.90;;;;;;4956461;29;20042;-75
2022/02/12 00:44:49;;;;;;;15.48;8.80;;;-2.70;99.90;;;;;;4956013;29;20466;-75
2022/02/12 00:47:15;;;;;;;20.88;9.65;;;-2.70;99.90;;;;;;4955958;29;20054;-74
2022/02/12 00:49:42;;;;;;;14.18;9.35;;;-2.70;99.90;;;;;;4955916;29;20031;-75
2022/02/12 00:52:08;;;;;;;18.45;11.73;;;-2.70;99.90;;;;;;4956270;29;20031;-75
2022/02/12 00:54:34;;;;;;;25.30;11.45;;;-2.70;99.90;;;;;;4956590;29;20046;-75
2022/02/12 00:57:00;;;;;;;27.70;10.18;;;-2.80;99.90;;;;;;4955336;29;20042;-75
2022/02/12 00:59:27;;;;;;;20.08;9.00;;;-2.80;99.90;;;;;;4956825;29;20035;-75
2022/02/12 01:01:53;;;;;;;15.80;10.57;;;-2.90;99.90;;;;;;4955583;29;20042;-75
2022/02/12 01:04:22;;;;;;;19.63;9.30;;;-2.90;99.90;;;;;;4955986;29;20055;-75
2022/02/12 01:06:51;;;;;;;15.23;10.80;;;-3.00;99.90;;;;;;4954975;29;20050;-75
2022/02/12 01:09:18;;;;;;;32.10;14.25;;;-3.10;99.90;;;;;;4955926;29;20035;-75
2022/02/12 01:11:44;;;;;;;22.08;14.73;;;-3.10;99.90;;;;;;4954940;29;20027;-75
2022/02/12 01:14:12;;;;;;;23.27;10.15;;;-3.10;99.90;;;;;;4954431;29;20039;-75
2022/02/12 01:16:39;;;;;;;15.88;9.50;;;-3.10;99.90;;;;;;4955013;28;20035;-75
2022/02/12 01:19:05;;;;;;;23.95;9.43;;;-3.10;99.90;;;;;;4974696;28;20027;-74
2022/02/12 01:21:31;;;;;;;9.18;7.25;;;-3.10;99.90;;;;;;4975554;28;20031;-75
2022/02/12 01:23:58;;;;;;;18.65;9.02;;;-3.10;99.90;;;;;;4974258;28;20050;-75
2022/02/12 01:26:24;;;;;;;14.65;9.02;;;-3.00;99.90;;;;;;4974757;28;20034;-75
2022/02/12 01:28:50;;;;;;;14.15;8.07;;;-3.10;99.90;;;;;;4974175;28;20039;-75
2022/02/12 01:31:16;;;;;;;14.57;9.68;;;-3.20;99.90;;;;;;4973350;28;20468;-75
2022/02/12 01:33:43;;;;;;;14.38;10.07;;;-3.20;99.90;;;;;;4973315;28;20073;-75
2022/02/12 01:36:09;;;;;;;11.70;9.07;;;-3.20;99.90;;;;;;4974718;28;20038;-75
2022/02/12 01:38:35;;;;;;;22.42;9.13;;;-3.30;99.90;;;;;;4974567;28;20031;-75
2022/02/12 01:41:02;;;;;;;20.20;8.18;;;-3.30;99.90;;;;;;4972850;28;20034;-75
2022/02/12 01:43:28;;;;;;;15.13;9.15;;;-3.30;99.90;;;;;;4956989;28;20031;-74
2022/02/12 01:45:54;;;;;;;10.60;8.18;;;-3.30;99.90;;;;;;4974047;28;20030;-75
2022/02/12 01:48:20;;;;;;;15.68;8.68;;;-3.10;99.90;;;;;;4974245;28;20378;-75
2022/02/12 01:50:50;;;;;;;16.45;8.43;;;-3.10;99.90;;;;;;4973794;28;20023;-74
2022/02/12 01:53:17;;;;;;;12.73;7.82;;;-3.20;99.90;;;;;;4974760;28;20034;-75
2022/02/12 01:55:43;;;;;;;20.73;8.05;;;-3.30;99.90;;;;;;4973422;28;20364;-74
2022/02/12 01:58:10;;;;;;;25.42;9.20;;;-3.30;99.90;;;;;;4956920;28;20061;-73
2022/02/12 02:00:37;;;;;;;15.88;8.18;;;-3.30;99.90;;;;;;4974195;28;20383;-73
2022/02/12 02:03:04;;;;;;;23.88;9.52;;;-3.40;99.90;;;;;;4973486;28;20039;-73
2022/02/12 02:05:33;;;;;;;11.50;7.60;;;-3.50;99.90;;;;;;4974177;28;20459;-73
2022/02/12 02:08:01;;;;;;;15.93;8.27;;;-3.40;99.90;;;;;;4973048;28;20035;-75
2022/02/12 02:10:27;;;;;;;14.05;9.85;;;-3.30;99.90;;;;;;4974212;28;20053;-76
2022/02/12 02:12:53;;;;;;;14.82;9.85;;;-3.40;99.90;;;;;;4971430;28;20043;-76
2022/02/12 02:15:20;;;;;;;14.68;8.63;;;-3.50;99.90;;;;;;4973634;28;20022;-75
2022/02/12 02:17:46;;;;;;;17.70;9.82;;;-3.50;99.90;;;;;;4973401;28;20146;-76
2022/02/12 02:20:12;;;;;;;16.08;12.30;;;-3.50;99.90;;;;;;4973713;28;20387;-76
2022/02/12 02:22:59;;;;;;;17.08;11.30;;;-3.40;99.90;;;;;;4973841;28;20042;-76
2022/02/12 02:25:25;;;;;;;15.10;9.18;;;-3.50;99.90;;;;;;4956050;28;20045;-76
2022/02/12 02:27:52;;;;;;;15.85;7.97;;;-3.50;99.90;;;;;;4971880;28;20062;-76
2022/02/12 02:30:22;;;;;;;22.52;9.68;;;-3.60;99.90;;;;;;4956640;28;20038;-76
2022/02/12 02:32:49;;;;;;;16.13;8.32;;;-3.60;99.90;;;;;;4973165;28;20468;-76
2022/02/12 02:35:18;;;;;;;13.60;8.40;;;-3.60;99.90;;;;;;4988310;28;20035;-76
2022/02/12 02:37:49;;;;;;;13.73;8.15;;;-3.70;99.90;;;;;;4973056;28;20045;-76
2022/02/12 02:40:18;;;;;;;16.23;10.95;;;-3.70;99.90;;;;;;4973388;28;20042;-76
2022/02/12 02:42:45;;;;;;;19.42;12.32;;;-3.60;99.90;;;;;;4955691;28;20034;-78
2022/02/12 02:45:13;;;;;;;21.42;12.15;;;-3.60;99.90;;;;;;4973918;28;20456;-73
2022/02/12 02:47:40;;;;;;;21.20;9.65;;;-3.50;99.90;;;;;;4973357;28;20038;-74
2022/02/12 02:56:02;;;;;;;21.98;9.27;;;-3.60;99.90;;;;;;4977633;28;20042;-74
2022/02/12 02:58:34;;;;;;;17.83;9.00;;;-3.70;99.90;;;;;;4976620;28;20057;-75
2022/02/12 03:01:13;;;;;;;15.05;8.52;;;-3.70;99.90;;;;;;4978745;28;20034;-75
2022/02/12 03:03:41;;;;;;;16.33;8.18;;;-3.80;99.90;;;;;;4980086;28;20054;-74
2022/02/12 03:06:08;;;;;;;14.93;8.48;;;-3.80;99.90;;;;;;4981968;28;20037;-76
2022/02/12 03:08:35;;;;;;;16.92;9.48;;;-3.80;99.90;;;;;;4978745;28;20030;-76
2022/02/12 03:11:02;;;;;;;18.63;8.98;;;-3.80;99.90;;;;;;4976920;28;20034;-76
2022/02/12 03:13:28;;;;;;;15.30;9.73;;;-3.80;99.90;;;;;;4977290;28;20054;-75
2022/02/12 03:15:54;;;;;;;15.80;8.40;;;-3.80;99.90;;;;;;4976818;28;20482;-76
2022/02/12 03:18:20;;;;;;;13.38;7.80;;;-3.80;99.90;;;;;;4977063;28;20066;-75
2022/02/12 03:20:47;;;;;;;13.93;8.13;;;-3.80;99.90;;;;;;4976680;28;20448;-76
2022/02/12 03:23:13;;;;;;;13.27;8.15;;;-3.80;99.90;;;;;;4977086;28;20039;-75
2022/02/12 03:25:40;;;;;;;18.33;8.95;;;-3.80;99.90;;;;;;4977115;28;20384;-75
2022/02/12 03:28:07;;;;;;;30.00;10.15;;;-3.80;99.90;;;;;;4976291;28;20051;-75
2022/02/12 03:30:35;;;;;;;17.42;9.05;;;-3.90;99.90;;;;;;4976259;28;20070;-75
2022/02/12 03:33:02;;;;;;;14.30;9.07;;;-3.80;99.90;;;;;;4978300;28;20049;-75
2022/02/12 03:35:29;;;;;;;15.75;10.00;;;-3.80;99.90;;;;;;4977255;28;20400;-75
2022/02/12 03:38:05;;;;;;;18.38;9.32;;;-3.80;99.90;;;;;;4976216;28;20050;-75
2022/02/12 03:40:31;;;;;;;20.38;10.05;;;-3.80;99.90;;;;;;4959860;28;20047;-75
2022/02/12 03:42:57;;;;;;;18.77;9.50;;;-3.80;99.90;;;;;;4959101;28;20510;-75
2022/02/12 03:45:23;;;;;;;18.08;9.80;;;-3.80;99.90;;;;;;4976750;28;20039;-75
2022/02/12 03:47:50;;;;;;;18.98;10.52;;;-3.90;99.90;;;;;;4975797;28;20035;-75
2022/02/12 03:50:17;;;;;;;19.88;10.32;;;-3.90;99.90;;;;;;4977039;28;20455;-75
2022/02/12 03:52:43;;;;;;;15.55;9.30;;;-3.90;99.90;;;;;;4975632;28;20047;-76
2022/02/12 03:55:10;;;;;;;20.48;10.57;;;-3.90;99.90;;;;;;4975766;28;20387;-76
2022/02/12 03:57:36;;;;;;;24.55;9.95;;;-3.90;99.90;;;;;;4976441;28;20046;-74
2022/02/12 04:00:11;;;;;;;11.25;9.45;;;-3.90;99.90;;;;;;4975626;28;20035;-74
2022/02/12 04:02:39;;;;;;;12.63;9.80;;;-3.90;99.90;;;;;;4983121;28;20468;-76
2022/02/12 04:05:05;;;;;;;16.25;9.93;;;-3.90;99.90;;;;;;4974733;28;20035;-75
2022/02/12 04:07:32;;;;;;;16.70;9.65;;;-3.90;99.90;;;;;;4974325;28;20051;-76
2022/02/12 04:09:58;;;;;;;18.45;10.60;;;-3.90;99.90;;;;;;4975373;28;20041;-76
2022/02/12 04:12:24;;;;;;;15.25;10.35;;;-3.90;99.90;;;;;;4975762;28;20034;-76
2022/02/12 04:14:50;;;;;;;17.10;10.32;;;-4.00;99.90;;;;;;4957771;28;20475;-77
2022/02/12 04:17:16;;;;;;;15.88;9.75;;;-4.00;99.90;;;;;;4975781;28;20054;-76
2022/02/12 04:19:42;;;;;;;18.77;11.32;;;-4.00;99.90;;;;;;4975893;28;20360;-75
2022/02/12 04:22:09;;;;;;;20.67;10.35;;;-3.90;99.90;;;;;;4975126;28;20030;-74
2022/02/12 04:24:35;;;;;;;17.50;9.40;;;-4.00;99.90;;;;;;4975396;28;20030;-73
2022/02/12 04:27:01;;;;;;;14.45;10.43;;;-4.10;99.90;;;;;;4975056;28;20038;-74
2022/02/12 04:29:27;;;;;;;14.15;9.02;;;-4.00;99.90;;;;;;4975943;28;20043;-74
2022/02/12 04:31:54;;;;;;;18.60;8.85;;;-4.00;99.90;;;;;;4974589;28;20031;-74
2022/02/12 04:34:20;;;;;;;17.55;9.15;;;-4.10;99.90;;;;;;4975114;28;20463;-74
2022/02/12 04:36:47;;;;;;;17.13;8.75;;;-4.10;99.90;;;;;;4990103;28;20054;-74
2022/02/12 04:39:14;;;;;;;20.40;10.40;;;-4.20;99.90;;;;;;4974898;28;20033;-74
2022/02/12 04:41:40;;;;;;;12.70;8.85;;;-4.20;99.90;;;;;;4975344;28;20041;-74
2022/02/12 04:44:06;;;;;;;16.95;10.27;;;-4.10;99.90;;;;;;4974902;28;20037;-76
2022/02/12 04:46:32;;;;;;;15.95;9.30;;;-4.20;99.90;;;;;;4942045;28;20057;-76
2022/02/12 04:48:59;;;;;;;12.55;9.18;;;-4.30;99.90;;;;;;4975104;28;20456;-76
2022/02/12 04:51:26;;;;;;;17.15;8.48;;;-4.40;99.90;;;;;;4975311;28;20046;-76
2022/02/12 04:53:52;;;;;;;19.65;10.48;;;-4.30;99.90;;;;;;4974567;28;20042;-76
2022/02/12 04:56:19;;;;;;;14.95;8.50;;;-4.40;99.90;;;;;;4975095;28;20030;-76
2022/02/12 04:58:45;;;;;;;13.88;8.90;;;-4.40;99.90;;;;;;4974911;28;20042;-77
2022/02/12 05:01:19;;;;;;;15.30;9.30;;;-4.40;99.90;;;;;;4974443;28;20467;-76
2022/02/12 05:03:48;;;;;;;17.58;7.82;;;-4.50;99.90;;;;;;4975074;28;20042;-76
2022/02/12 05:06:14;;;;;;;16.05;9.55;;;-4.30;99.90;;;;;;4974360;28;20057;-76
2022/02/12 05:08:41;;;;;;;15.23;10.27;;;-4.30;99.90;;;;;;4974762;28;20043;-76
2022/02/12 05:11:07;;;;;;;16.52;12.27;;;-4.10;99.90;;;;;;4957194;28;20038;-76
2022/02/12 05:13:33;;;;;;;15.52;9.60;;;-4.10;99.90;;;;;;4974959;28;20042;-76
2022/02/12 05:15:59;;;;;;;13.10;9.43;;;-4.30;99.90;;;;;;4957118;28;20034;-76
2022/02/12 05:18:25;;;;;;;23.05;10.32;;;-4.20;99.90;;;;;;4975021;28;20043;-76
2022/02/12 05:20:53;;;;;;;10.75;8.85;;;-4.20;99.90;;;;;;4974623;28;20041;-80
2022/02/12 05:23:19;;;;;;;14.98;9.57;;;-4.20;99.90;;;;;;4974804;28;20027;-76
2022/02/12 05:25:45;;;;;;;19.15;9.35;;;-4.20;99.90;;;;;;4975188;28;20046;-76
2022/02/12 05:28:11;;;;;;;19.10;9.00;;;-4.30;99.90;;;;;;4974025;28;20061;-76
2022/02/12 05:30:40;;;;;;;12.75;9.50;;;-4.50;99.90;;;;;;4974638;28;20034;-76
2022/02/12 05:33:07;;;;;;;16.67;9.55;;;-4.50;99.90;;;;;;4973971;28;20037;-76
2022/02/12 05:35:33;;;;;;;17.50;9.93;;;-4.50;99.90;;;;;;4974959;28;20081;-76
2022/02/12 05:38:00;;;;;;;13.52;9.27;;;-4.50;99.90;;;;;;4973798;28;20030;-76
2022/02/12 05:40:26;;;;;;;16.23;10.32;;;-4.60;99.90;;;;;;4974430;28;20031;-76
2022/02/12 05:42:52;;;;;;;11.27;9.20;;;-4.60;99.90;;;;;;4974455;28;20047;-76
2022/02/12 05:45:18;;;;;;;16.58;9.13;;;-4.60;99.90;;;;;;4973555;28;20379;-76
2022/02/12 05:47:44;;;;;;;29.27;9.90;;;-4.60;99.90;;;;;;4957045;28;20039;-76
2022/02/12 05:50:10;;;;;;;12.65;8.88;;;-4.50;99.90;;;;;;4974006;28;20038;-76
2022/02/12 05:52:37;;;;;;;16.10;9.85;;;-4.50;99.90;;;;;;4974193;28;20035;-76
2022/02/12 05:55:04;;;;;;;16.15;10.40;;;-4.60;99.90;;;;;;4976694;28;20103;-78
2022/02/12 05:57:30;;;;;;;26.55;10.02;;;-4.60;99.90;;;;;;4980479;28;20035;-76
2022/02/12 05:59:56;;;;;;;18.95;9.75;;;-4.70;99.90;;;;;;4975136;28;20031;-74
2022/02/12 06:02:23;;;;;;;18.42;9.07;;;-4.70;99.90;;;;;;4974953;28;20046;-76
2022/02/12 06:04:49;;;;;;;20.58;9.43;;;-4.80;99.90;;;;;;4975442;28;20027;-76
2022/02/12 06:07:15;;;;;;;16.95;10.98;;;-4.70;99.90;;;;;;4974302;28;20273;-76
2022/02/12 06:09:41;;;;;;;18.73;8.90;;;-4.70;99.90;;;;;;4975239;28;20146;-76
2022/02/12 06:12:08;;;;;;;11.77;8.82;;;-4.70;99.90;;;;;;4956542;28;20050;-76
2022/02/12 06:14:34;;;;;;;14.13;8.57;;;-4.70;99.90;;;;;;4973828;28;20050;-76
2022/02/12 06:17:01;;;;;;;19.88;9.23;;;-4.80;99.90;;;;;;4973941;28;20506;-76
2022/02/12 06:19:27;;;;;;;12.75;8.32;;;-4.90;99.90;;;;;;4974476;28;20039;-75
2022/02/12 06:21:53;;;;;;;12.98;8.52;;;-4.80;99.90;;;;;;4974306;28;20030;-76
2022/02/12 06:24:20;;;;;;;12.45;8.52;;;-4.90;99.90;;;;;;4974212;28;20487;-76
2022/02/12 06:26:51;;;;;;;19.33;8.00;;;-5.00;99.90;;;;;;4973733;28;20030;-76
2022/02/12 06:29:20;;;;;;;;;;;-5.10;99.90;;;;;;4956253;28;20059;-76
2022/02/12 06:31:46;;;;;;;10.50;7.78;;;-5.20;99.90;;;;;;4974323;28;19906;-76
2022/02/12 06:34:12;;;;;;;21.35;9.02;;;-5.10;99.90;;;;;;4973319;28;20039;-76
2022/02/12 06:36:38;;;;;;;14.32;8.77;;;-5.10;99.90;;;;;;4974399;28;20054;-76
2022/02/12 06:39:05;;;;;;;25.23;8.73;;;-5.00;99.90;;;;;;4974012;28;20031;-76
2022/02/12 06:41:31;;;;;;;15.18;8.57;;;-5.00;99.90;;;;;;4973849;28;20038;-76
2022/02/12 06:43:58;;;;;;;13.88;8.77;;;-5.00;99.90;;;;;;4975044;28;20030;-80
2022/02/12 06:46:24;;;;;;;10.15;7.35;;;-5.00;99.90;;;;;;4974244;28;20031;-76
2022/02/12 06:48:50;;;;;;;14.13;8.27;;;-5.00;99.90;;;;;;4973879;28;20034;-76
2022/02/12 06:51:17;;;;;;;16.25;8.55;;;-4.90;99.90;;;;;;4973608;28;20035;-76
2022/02/12 06:53:44;;;;;;;13.07;8.63;;;-4.90;99.90;;;;;;4957227;28;20043;-76
2022/02/12 06:56:10;;;;;;;15.23;8.90;;;-4.90;99.90;;;;;;4977014;28;20387;-76
2022/02/12 06:58:37;;;;;;;14.63;9.57;;;-4.90;99.90;;;;;;4956901;28;20046;-76
2022/02/12 07:01:04;;;;;;;15.05;10.43;;;-4.90;99.90;;;;;;4973334;28;20460;-76
2022/02/12 07:03:30;;;;;;;21.13;10.00;;;-4.80;99.90;;;;;;4973636;28;20042;-76
2022/02/12 07:05:56;;;;;;;16.95;10.75;;;-4.60;99.90;;;;;;4973426;28;20046;-76
2022/02/12 07:08:23;;;;;;;21.95;11.45;;;-4.50;99.90;;;;;;4972914;28;20372;-78
2022/02/12 07:10:49;;;;;;;18.67;11.93;;;-4.40;99.90;;;;;;4972147;28;20431;-77
2022/02/12 07:13:15;;;;;;;20.23;11.55;;;-4.30;99.90;;;;;;4973127;28;20039;-77
2022/02/12 07:15:42;;;;;;;16.25;12.32;;;-4.20;99.90;;;;;;4973685;28;20463;-78
2022/02/12 07:18:08;;;;;;;26.38;12.02;;;-4.10;99.90;;;;;;4972838;28;20051;-77
2022/02/12 07:20:34;;;;;;;23.65;11.85;;;-4.00;99.90;;;;;;4973324;28;20046;-78
2022/02/12 07:23:00;;;;;;;22.60;10.85;;;-4.00;99.90;;;;;;4955642;28;20035;-81
2022/02/12 07:25:27;;;;;;;17.52;11.45;;;-4.00;99.90;;;;;;4973324;28;20031;-77
2022/02/12 07:27:57;;;;;;;18.13;11.80;;;-4.00;99.90;;;;;;4972939;28;20141;-78
2022/02/12 07:30:24;;;;;;;17.08;11.50;;;-4.00;99.90;;;;;;4972833;28;20034;-76
2022/02/12 07:32:51;;;;;;;19.67;12.63;;;-3.90;99.90;;;;;;4972911;28;20042;-76
2022/02/12 07:35:18;;;;;;;15.38;10.50;;;-3.80;99.90;;;;;;4972292;28;20034;-75
2022/02/12 07:37:47;;;;;;;15.93;11.38;;;-3.70;99.90;;;;;;4972736;28;20042;-76
2022/02/12 07:40:15;;;;;;;21.80;11.65;;;-3.70;99.90;;;;;;4975362;28;20030;-73
2022/02/12 07:42:42;;;;;;;20.45;12.57;;;-3.40;99.90;;;;;;4958885;28;20048;-73
2022/02/12 07:45:09;;;;;;;20.30;13.77;;;-3.10;99.90;;;;;;4976029;28;20375;-74
2022/02/12 07:47:36;;;;;;;21.88;12.65;;;-2.60;99.90;;;;;;4976053;28;20031;-76
2022/02/12 07:50:05;;;;;;;17.55;13.65;;;-2.20;99.90;;;;;;4975376;28;20047;-74
2022/02/12 07:52:31;;;;;;;16.95;11.05;;;-1.70;99.90;;;;;;4976056;28;20042;-74
2022/02/12 07:54:57;;;;;;;15.77;11.45;;;-1.10;99.90;;;;;;4976333;28;20031;-76
2022/02/12 07:57:23;;;;;;;15.20;10.05;;;-0.70;99.90;;;;;;4975662;28;20035;-74
2022/02/12 07:59:49;;;;;;;10.07;8.73;;;-0.40;99.90;;;;;;4975984;28;20031;-74
2022/02/12 08:02:16;;;;;;;18.88;10.95;;;-0.40;99.90;;;;;;4974099;28;20396;-74
2022/02/12 08:04:42;;;;;;;13.75;8.70;;;-0.50;99.90;;;;;;4975958;28;20045;-74
2022/02/12 08:09:53;;;;;;;13.70;9.02;;;-0.60;99.90;;;;;;4988580;28;20039;-74
2022/02/12 08:12:20;;;;;;;12.27;8.48;;;-0.30;99.90;;;;;;4966041;28;20050;-75
2022/02/12 08:14:51;;;;;;;8.75;6.10;;;-0.20;99.90;;;;;;4974814;28;20037;-75
2022/02/12 08:17:19;;;;;;;13.07;9.82;;;0.00;99.90;;;;;;4958901;28;20047;-76
2022/02/12 08:19:48;;;;;;;12.35;9.02;;;0.00;99.90;;;;;;4977891;28;20412;-75
2022/02/12 08:22:15;;;;;;;15.75;9.02;;;0.10;99.90;;;;;;4976378;28;20030;-74
2022/02/12 08:24:43;;;;;;;10.07;8.68;;;0.50;99.90;;;;;;4977390;28;20042;-74
2022/02/12 08:27:10;;;;;;;13.30;8.25;;;0.80;99.90;;;;;;4974869;28;20108;-74
2022/02/12 08:29:38;;;;;;;8.27;7.25;;;1.40;99.90;;;;;;4976068;28;20039;-75
2022/02/12 08:32:05;;;;;;;10.32;6.38;;;1.70;99.90;;;;;;5004984;28;20031;-77
2022/02/12 08:34:32;;;;;;;16.45;10.65;;;2.00;99.90;;;;;;4978263;28;20042;-75
2022/02/12 08:36:59;;;;;;;13.88;9.93;;;1.70;99.90;;;;;;4975924;28;20035;-74
2022/02/12 08:39:25;;;;;;;13.65;9.95;;;1.60;99.90;;;;;;4974637;28;20038;-75
2022/02/12 08:41:53;;;;;;;10.43;8.10;;;1.30;99.90;;;;;;4990048;28;20058;-75
2022/02/12 08:44:20;;;;;;;12.00;7.82;;;1.10;99.90;;;;;;4975226;28;20035;-74
2022/02/12 08:46:46;;;;;;;9.77;7.43;;;1.10;99.90;;;;;;4975307;28;20353;-75
2022/02/12 08:49:16;;;;;;;26.13;8.90;;;1.30;99.90;;;;;;4956712;28;20484;-74
2022/02/12 08:51:43;;;;;;;14.27;10.25;;;2.00;99.90;;;;;;4974924;28;20035;-74
2022/02/12 08:54:12;;;;;;;15.45;9.13;;;2.10;99.90;;;;;;4974475;28;20031;-75
2022/02/12 08:56:40;;;;;;;15.95;8.30;;;1.90;99.90;;;;;;4975477;28;20031;-74
2022/02/12 08:59:07;;;;;;;11.32;8.52;;;1.60;99.90;;;;;;4974548;28;20050;-75
2022/02/12 09:01:34;;;;;;;10.50;9.13;;;1.80;99.90;;;;;;4975074;28;20022;-74
2022/02/12 09:04:00;;;;;;;11.70;7.68;;;2.00;99.90;;;;;;4970159;28;20366;-75
2022/02/12 09:06:26;;;;;;;10.88;9.77;;;2.30;99.90;;;;;;4940058;29;20039;-74
2022/02/12 09:08:53;;;;;;;9.93;8.93;;;2.60;99.90;;;;;;4960062;29;20054;-75
2022/02/12 09:11:19;;;;;;;9.13;7.63;;;2.80;99.90;;;;;;4957631;29;20050;-75
2022/02/12 09:13:48;;;;;;;12.07;7.93;;;3.10;99.90;;;;;;4958086;29;20039;-76
2022/02/12 09:16:14;;;;;;;9.00;7.60;;;2.50;99.90;;;;;;4957788;29;20488;-75
2022/02/12 09:18:40;;;;;;;11.75;7.93;;;2.20;99.90;;;;;;4961281;28;20047;-75
2022/02/12 09:21:07;;;;;;;13.65;7.65;;;2.10;99.90;;;;;;4967517;28;20031;-78
2022/02/12 09:23:33;;;;;;;9.02;8.13;;;2.10;99.90;;;;;;4971151;28;20412;-76
2022/02/12 09:26:00;;;;;;;10.93;7.88;;;2.50;99.90;;;;;;4966821;28;20033;-76
2022/02/12 09:28:26;;;;;;;12.65;8.00;;;2.80;99.90;;;;;;4977477;28;20053;-76
2022/02/12 09:30:52;;;;;;;11.65;7.60;;;2.70;99.90;;;;;;4977535;28;20043;-76
2022/02/12 09:33:18;;;;;;;8.23;6.80;;;2.70;99.90;;;;;;4976581;28;20034;-76
2022/02/12 09:35:47;;;;;;;8.68;6.97;;;2.10;99.90;;;;;;4971851;28;20042;-75
2022/02/12 09:38:13;;;;;;;11.18;7.72;;;2.00;99.90;;;;;;4960701;28;20037;-76
2022/02/12 09:40:40;;;;;;;9.05;7.38;;;1.90;99.90;;;;;;4977623;28;20035;-76
2022/02/12 09:43:07;;;;;;;11.13;7.70;;;1.80;99.90;;;;;;4977320;28;20026;-75
2022/02/12 09:45:42;;;;;;;11.57;8.45;;;1.80;99.90;;;;;;4976982;28;20058;-75
2022/02/12 09:48:10;;;;;;;8.15;7.13;;;1.80;99.90;;;;;;4959917;28;20039;-74
2022/02/12 09:50:38;;;;;;;13.40;8.27;;;1.90;99.90;;;;;;4974957;28;20046;-74
2022/02/12 09:53:04;;;;;;;12.00;7.93;;;2.00;99.90;;;;;;4978600;28;20483;-75
2022/02/12 09:55:33;;;;;;;14.00;8.02;;;2.10;99.90;;;;;;4975436;28;20042;-74
2022/02/12 09:57:59;;;;;;;18.23;9.30;;;2.20;99.90;;;;;;4977332;28;20034;-75
2022/02/12 10:00:25;;;;;;;16.63;8.90;;;2.30;99.90;;;;;;4976363;28;20373;-75
2022/02/12 10:02:54;;;;;;;22.20;9.25;;;2.50;99.90;;;;;;4974506;28;20038;-75
2022/02/12 10:05:22;;;;;;;20.45;8.90;;;2.70;99.90;;;;;;4975215;28;20042;-75
2022/02/12 10:07:51;;;;;;;12.75;6.95;;;2.80;99.90;;;;;;4976842;28;20038;-74
2022/02/12 10:10:20;;;;;;;9.68;7.90;;;2.90;99.90;;;;;;4973466;28;20054;-75
2022/02/12 10:12:47;;;;;;;14.88;8.35;;;3.00;99.90;;;;;;4974023;28;20046;-75
2022/02/12 10:15:29;;;;;;;13.75;7.80;;;3.20;99.90;;;;;;4973216;28;20030;-76
2022/02/12 10:17:58;;;;;;;10.23;7.28;;;3.50;99.90;;;;;;4972359;28;20054;-76
2022/02/12 10:20:30;;;;;;;9.23;7.07;;;3.60;99.90;;;;;;4973581;28;20038;-75
2022/02/12 10:23:03;;;;;;;14.70;7.65;;;3.80;99.90;;;;;;4968072;28;20098;-76
2022/02/12 10:25:30;;;;;;;9.68;7.93;;;3.90;99.00;;;;;;4959519;28;20043;-75
2022/02/12 10:27:56;;;;;;;9.43;7.60;;;3.90;98.60;;;;;;4954490;29;20050;-75
2022/02/12 10:30:26;;;;;;;9.20;6.28;;;3.80;99.20;;;;;;4953671;29;20042;-75
2022/02/12 10:33:01;;;;;;;10.05;5.55;;;3.70;96.90;;;;;;4954257;29;20116;-74
2022/02/12 10:35:28;;;;;;;9.77;5.97;;;3.90;97.00;;;;;;4953682;29;20043;-75
2022/02/12 10:37:59;;;;;;;9.95;5.47;;;4.20;95.20;;;;;;4969180;28;20035;-75
2022/02/12 10:40:26;;;;;;;;;;;4.40;93.80;;;;;;4955070;29;20039;-75
2022/02/12 10:42:53;;;;;;;6.68;4.38;;;4.60;93.80;;;;;;4954164;29;19915;-75
2022/02/12 10:45:20;;;;;;;6.40;3.90;;;4.80;93.80;;;;;;4953484;29;20036;-75
2022/02/12 10:47:48;;;;;;;6.97;4.68;;;5.10;92.40;;;;;;4954171;29;20145;-77
2022/02/12 10:50:19;;;;;;;7.55;4.95;;;5.10;89.80;;;;;;4953702;29;20047;-75
2022/02/12 10:52:50;;;;;;;3.67;3.03;;;5.20;88.30;;;;;;4954195;29;20485;-75
2022/02/12 10:55:40;;;;;;;7.65;4.38;;;5.30;89.00;;;;;;4936500;29;20267;-74
2022/02/12 10:58:09;;;;;;;15.98;5.15;;;5.20;87.10;;;;;;4968986;28;20054;-74
2022/02/12 11:00:41;;;;;;;7.03;4.43;;;5.20;87.30;;;;;;4953158;29;20040;-75
2022/02/12 11:03:10;;;;;;;4.97;3.83;;;5.20;84.90;;;;;;4953701;29;20031;-75
2022/02/12 11:05:40;;;;;;;8.07;4.28;;;5.40;86.00;;;;;;4953313;29;20031;-74
2022/02/12 11:08:07;;;;;;;7.07;3.97;;;5.40;84.70;;;;;;4954170;29;20044;-75
2022/02/12 11:10:34;;;;;;;8.00;4.88;;;5.50;83.10;;;;;;4955856;29;20256;-75
2022/02/12 11:13:03;;;;;;;6.30;4.35;;;5.50;85.10;;;;;;4955859;28;20046;-75
2022/02/12 11:15:30;;;;;;;5.78;3.92;;;5.60;83.40;;;;;;4957314;29;20355;-74
2022/02/12 11:18:03;;;;;;;7.55;4.20;;;5.60;79.40;;;;;;4957627;29;20059;-75
2022/02/12 11:20:29;;;;;;;8.77;3.58;;;5.60;81.10;;;;;;4956797;29;20038;-75
2022/02/12 11:23:21;;;;;;;7.15;3.28;;;5.80;82.90;;;;;;4972675;28;20369;-75
2022/02/12 11:25:47;;;;;;;;;;;5.90;80.70;;;;;;4957669;29;20031;-75
2022/02/12 11:28:15;;;;;;;4.35;3.38;;;5.80;79.90;;;;;;4957209;29;19919;-74
2022/02/12 11:30:42;;;;;;;6.20;3.90;;;5.90;80.90;;;;;;4940107;29;20042;-74
2022/02/12 11:33:19;;;;;;;7.30;3.67;;;6.00;80.60;;;;;;4957029;29;20503;-75
2022/02/12 11:36:18;;;;;;;6.43;3.38;;;5.90;78.10;;;;;;4957332;29;20038;-76
2022/02/12 11:38:48;;;;;;;5.15;3.15;;;5.80;77.90;;;;;;4957112;29;20046;-74
2022/02/12 11:41:22;;;;;;;8.30;4.18;;;5.80;75.80;;;;;;4957052;29;20044;-74
2022/02/12 11:43:49;;;;;;;5.32;3.50;;;5.80;75.60;;;;;;4956989;29;20046;-74
2022/02/12 11:46:41;;;;;;;7.07;4.15;;;5.90;75.50;;;;;;4956987;29;20031;-76
2022/02/12 11:49:24;;;;;;;7.45;3.22;;;6.00;76.60;;;;;;4957060;29;20039;-75
2022/02/12 11:51:50;;;;;;;7.85;2.97;;;6.10;76.60;;;;;;4956859;29;20043;-75
2022/02/12 11:54:56;;;;;;;5.55;3.72;;;6.30;76.30;;;;;;4956382;29;20043;-77
2022/02/12 11:57:25;;;;;;;4.65;3.50;;;6.40;75.70;;;;;;4956251;29;20046;-75
2022/02/12 12:00:11;;;;;;;12.43;3.38;;;6.50;74.30;;;;;;4972252;28;20039;-75
2022/02/12 12:02:53;;;;;;;5.78;3.30;;;6.50;74.20;;;;;;4935591;29;20040;-74
2022/02/12 12:05:24;;;;;;;5.65;3.13;;;6.60;72.00;;;;;;4956263;29;20050;-76
2022/02/12 12:08:11;;;;;;;6.15;3.30;;;6.60;72.40;;;;;;4964533;28;20353;-75
2022/02/12 12:10:59;;;;;;;7.38;3.38;;;6.70;73.00;;;;;;4974321;28;20035;-75
2022/02/12 12:13:26;;;;;;;8.20;3.03;;;6.60;70.90;;;;;;4975849;28;20360;-75
2022/02/12 12:15:56;;;;;;;6.22;3.58;;;6.50;70.00;;;;;;4959796;28;20491;-75
2022/02/12 12:18:25;;;;;;;4.10;2.28;;;6.70;71.40;;;;;;4976680;28;20054;-74
2022/02/12 12:20:51;;;;;;;12.35;3.00;;;6.80;70.30;;;;;;4962200;28;20046;-75
2022/02/12 12:23:17;;;;;;;5.18;2.67;;;6.90;68.30;;;;;;4977454;28;20050;-73
2022/02/12 12:26:06;;;;;;;6.38;2.22;;;6.90;67.20;;;;;;4941832;28;20035;-75
2022/02/12 12:28:42;;;;;;;3.40;2.25;;;6.90;66.30;;;;;;4975370;28;20498;-74
2022/02/12 12:31:17;;;;;;;4.43;3.03;;;6.90;67.40;;;;;;4975157;28;20476;-72
2022/02/12 12:33:45;;;;;;;9.35;3.22;;;7.10;67.40;;;;;;4957067;28;20058;-74
2022/02/12 12:36:17;;;;;;;4.25;2.30;;;7.10;68.20;;;;;;4975369;28;20034;-75
2022/02/12 12:38:49;;;;;;;7.45;3.08;;;7.20;68.30;;;;;;4974886;28;20037;-75
2022/02/12 12:41:31;;;;;;;5.10;2.88;;;7.10;67.80;;;;;;4975310;28;20043;-75
2022/02/12 12:44:15;;;;;;;5.50;2.70;;;7.30;68.20;;;;;;4958370;28;20031;-75
2022/02/12 12:46:54;;;;;;;6.55;2.75;;;7.40;67.40;;;;;;4981470;28;20356;-75
2022/02/12 12:49:34;;;;;;;5.95;2.45;;;7.50;64.40;;;;;;4979232;28;20058;-75
2022/02/12 12:52:01;;;;;;;3.00;2.08;;;7.40;63.80;;;;;;4978162;28;20468;-74
2022/02/12 12:54:35;;;;;;;3.15;2.30;;;7.50;64.10;;;;;;4978413;28;20042;-75